• Join FlightAware (Why Join?)
  • Login
  • US Flag 
02:36PM EDT


 

Airport Tracker/Info


-or-


 

Live Flight TrackerFlight Track Log ✈ EMD21 ✈ 26-Jul-2013 ✈ KOJC - KMLC

Flight Track Log - Related Links

Times and Time Zones

All times are in EDT time to prevent confusion due to time zone crossing. See the EMD21 flight status page for this flight to view local times or setup timezone preferences in your user account.

Time Position Orientation Groundspeed Altitude Reporting Facility
EDT Latitude Longitude Course Direction KTS MPH feet Rate Location/Type
03:20PM 38.8667 -94.7333 322° Northwest 135 155 1,500  Level Kansas City TRACON
03:21PM 38.9000 -94.7667 337° Northwest 141 162 3,100 1,440 Climbing Kansas City TRACON
03:22PM 38.9000 -94.8167 270° West 126 145 4,700 1,440 Climbing Kansas City TRACON
03:23PM 38.9008 -94.8706 271° West 143 165 6,500 1,500 Climbing Kansas City Center
03:24PM 38.8594 -94.9011 210° Southwest 153 176 8,100 1,440 Climbing Kansas City Center
03:25PM 38.8244 -94.9258 209° Southwest 150 173 9,500 960 Climbing Kansas City Center
03:26PM 38.7808 -94.9553 208° Southwest 182 209 10,200 900 Climbing Kansas City Center
03:27PM 38.7294 -94.9939 210° Southwest 188 216 11,400 1,020 Climbing Kansas City Center
03:28PM 38.6847 -95.0150 200° South 180 207 12,400 960 Climbing Kansas City Center
03:29PM 38.6269 -95.0244 187° South 186 214 13,400 900 Climbing Kansas City Center
03:30PM 38.5811 -95.0353 190° South 176 203 14,300 840 Climbing Kansas City Center
03:31PM 38.5261 -95.0467 189° South 178 205 15,200 780 Climbing Kansas City Center
03:32PM 38.4800 -95.0561 189° South 176 203 16,000 360 Climbing Kansas City Center
03:33PM 38.4181 -95.0703 190° South 201 231 16,000  Level Kansas City Center
03:34PM 38.3575 -95.0828 189° South 227 261 16,000  Level Kansas City Center
03:35PM 38.2844 -95.0967 188° South 235 270 16,000  Level Kansas City Center
03:36PM 38.2217 -95.1131 192° South 238 274 16,000  Level Kansas City Center
03:37PM 38.1475 -95.1281 189° South 242 278 16,000  Level Kansas City Center
03:38PM 38.0861 -95.1422 190° South 235 270 16,000  Level Kansas City Center
03:40PM 38.0225 -95.1542 188° South 239 275 16,000  Level Kansas City Center
03:41PM 37.9508 -95.1697 190° South 236 272 16,000  Level Kansas City Center
03:42PM 37.8803 -95.1817 188° South 237 273 16,000  Level Kansas City Center
03:43PM 37.8164 -95.1981 191° South 235 270 16,000  Level Kansas City Center
03:44PM 37.7508 -95.2108 189° South 237 273 16,000  Level Kansas City Center
03:45PM 37.6850 -95.2242 189° South 239 275 16,000  Level Kansas City Center
03:46PM 37.6203 -95.2372 189° South 237 273 16,100  Climbing Kansas City Center
03:47PM 37.5436 -95.2633 195° South 235 270 16,100  Level Kansas City Center
03:48PM 37.4833 -95.2961 203° Southwest 235 270 16,100  Level Kansas City Center
03:49PM 37.4225 -95.3231 199° South 233 268 16,100  Level Kansas City Center
03:50PM 37.3611 -95.3517 200° South 234 269 16,100  Level Kansas City Center
03:51PM 37.3003 -95.3797 200° South 234 269 16,100  Level Kansas City Center
03:52PM 37.2386 -95.4094 201° Southwest 235 270 16,100  Level Kansas City Center
03:53PM 37.1778 -95.4367 200° South 234 269 16,100  Level Kansas City Center
03:54PM 37.1053 -95.4714 201° Southwest 232 267 16,100 -60 Level Kansas City Center
03:55PM 37.0433 -95.4983 199° South 234 269 16,000  Descending Kansas City Center
03:56PM 36.9833 -95.5272 201° Southwest 233 268 16,100  Climbing Kansas City Center
03:57PM 36.9228 -95.5558 201° Southwest 232 267 16,000 -60 Descending Kansas City Center
03:58PM 36.8622 -95.5833 200° South 232 267 16,000  Level Kansas City Center
03:59PM 36.7919 -95.6164 201° Southwest 227 261 16,100  Climbing Kansas City Center
04:00PM 36.7328 -95.6431 200° South 226 260 16,100 -60 Level Kansas City Center
04:01PM 36.6742 -95.6708 201° Southwest 227 261 16,000  Descending Kansas City Center
04:02PM 36.6167 -95.6975 200° South 224 258 16,100  Climbing Kansas City Center
04:03PM 36.5594 -95.7236 200° South 224 258 16,000 -60 Descending Kansas City Center
04:04PM 36.5083 -95.7469 200° South 225 259 16,000  Level Kansas City Center
04:05PM 36.4539 -95.7725 201° Southwest 225 259 16,000 -420 Level Kansas City Center
04:06PM 36.3931 -95.7986 199° South 236 272 15,200 -780 Descending Kansas City Center
04:06PM 36.3619 -95.8000 182° South 238 274 14,900 -720 Descending Kansas City Center
04:07PM 36.3217 -95.7975 177° South 257 296 14,500 -600 Descending Kansas City Center
04:07PM 36.2919 -95.7958 177° South 248 285 14,300 -660 Descending Kansas City Center
04:08PM 36.2461 -95.7944 179° South 253 291 13,800 -660 Descending Kansas City Center
04:09PM 36.1767 -95.7933 179° South 245 282 13,300 -600 Descending Kansas City Center
04:10PM 36.1075 -95.7947 181° South 247 284 12,700 -600 Descending Kansas City Center
04:11PM 36.0722 -95.7925 177° South 248 285 12,400 -480 Descending Kansas City Center
04:12PM 36.0019 -95.7919 180° South 252 290 12,000 -240 Descending Kansas City Center
04:13PM 35.9339 -95.7917 180° South 248 285 12,000  Level Kansas City Center
04:14PM 35.8664 -95.7911 180° South 245 282 12,000  Level Kansas City Center
04:15PM 35.7994 -95.7900 179° South 241 277 12,100  Climbing Kansas City Center
04:16PM 35.7325 -95.7881 179° South 241 277 12,100  Level Kansas City Center
04:17PM 35.6514 -95.7878 180° South 241 277 12,100 -420 Level Kansas City Center
04:18PM 35.5842 -95.7889 181° South 241 277 11,300 -840 Descending Kansas City Center
04:19PM 35.5131 -95.7883 180° South 250 288 10,400 -840 Descending Kansas City Center
04:20PM 35.4433 -95.7858 178° South 252 290 9,600 -660 Descending Kansas City Center
04:21PM 35.3781 -95.7850 179° South 241 277 9,100 -300 Descending Kansas City Center
04:22PM 35.3189 -95.7922 186° South 221 254 9,100 -720 Level Kansas City Center
04:23PM 35.2500 -95.8044 188° South 218 251 7,700 -1,320 Descending Fort Worth Center
04:24PM 35.1875 -95.8131 186° South 218 251 6,400 -900 Descending Fort Worth Center
04:25PM 35.1369 -95.7711 146° Southeast 208 239 6,000 -240 Descending Fort Worth Center
04:26PM 35.0947 -95.7311 142° Southeast 193 222 6,000  Level Fort Worth Center
04:27PM 35.0525 -95.6992 148° Southeast 187 215 6,000 -540 Level Fort Worth Center
04:28PM 35.0656 -95.7369 293° West 83 96 5,000 -540 Descending Fort Worth Center
04:29PM 35.1194 -95.7131 20° North 70 81 5,000 -60 Level Fort Worth Center
04:30PM 35.0981 -95.6803 129° Southeast 71 82 4,900  Descending Fort Worth Center
04:31PM 35.0567 -95.7042 205° Southwest 91 105 5,000 -120 Climbing Fort Worth Center
04:32PM 35.0153 -95.7228 200° South 129 148 4,700 -720 Descending Fort Worth Center
04:33PM 34.9758 -95.7411 201° Southwest 150 173 3,600 -1,140 Descending Fort Worth Center
04:34PM 34.9428 -95.7622 208° Southwest 150 173 2,500 180 Descending Fort Worth Center
04:35PM 34.9014 -95.7806 200° South 150 173 4,000 1,500 Climbing Fort Worth Center